sensor_id;sensor_type;location;lat;lon;timestamp;P1;durP1;ratioP1;P2;durP2;ratioP2
15669;SDS011;18524;45.190;5.732;2023-03-11T00:03:01;2.07;;;0.90;;
15669;SDS011;18524;45.190;5.732;2023-03-11T00:07:53;3.07;;;1.00;;
15669;SDS011;18524;45.190;5.732;2023-03-11T00:12:44;2.83;;;1.07;;
15669;SDS011;18524;45.190;5.732;2023-03-11T00:17:34;4.07;;;1.60;;
15669;SDS011;18524;45.190;5.732;2023-03-11T00:22:25;1.60;;;0.87;;
15669;SDS011;18524;45.190;5.732;2023-03-11T00:27:15;1.93;;;0.77;;
15669;SDS011;18524;45.190;5.732;2023-03-11T00:32:05;1.63;;;0.93;;
15669;SDS011;18524;45.190;5.732;2023-03-11T00:36:56;2.33;;;0.80;;
15669;SDS011;18524;45.190;5.732;2023-03-11T00:41:47;2.30;;;0.80;;
15669;SDS011;18524;45.190;5.732;2023-03-11T00:46:37;1.63;;;0.63;;
15669;SDS011;18524;45.190;5.732;2023-03-11T00:51:27;1.00;;;0.70;;
15669;SDS011;18524;45.190;5.732;2023-03-11T00:56:18;1.03;;;0.50;;
15669;SDS011;18524;45.190;5.732;2023-03-11T01:01:10;1.70;;;1.00;;
15669;SDS011;18524;45.190;5.732;2023-03-11T01:06:04;0.80;;;0.77;;
15669;SDS011;18524;45.190;5.732;2023-03-11T01:10:54;1.57;;;0.80;;
15669;SDS011;18524;45.190;5.732;2023-03-11T01:15:45;2.20;;;1.00;;
15669;SDS011;18524;45.190;5.732;2023-03-11T01:20:36;2.33;;;1.30;;
15669;SDS011;18524;45.190;5.732;2023-03-11T01:25:27;2.23;;;0.53;;
15669;SDS011;18524;45.190;5.732;2023-03-11T01:30:19;2.17;;;0.70;;
15669;SDS011;18524;45.190;5.732;2023-03-11T01:35:13;2.93;;;2.10;;
15669;SDS011;18524;45.190;5.732;2023-03-11T01:40:05;2.00;;;0.70;;
15669;SDS011;18524;45.190;5.732;2023-03-11T01:44:57;2.50;;;1.20;;
15669;SDS011;18524;45.190;5.732;2023-03-11T01:49:47;1.70;;;0.80;;
15669;SDS011;18524;45.190;5.732;2023-03-11T01:54:38;2.00;;;0.70;;
15669;SDS011;18524;45.190;5.732;2023-03-11T01:59:31;1.43;;;0.60;;
15669;SDS011;18524;45.190;5.732;2023-03-11T02:04:27;1.13;;;0.60;;
15669;SDS011;18524;45.190;5.732;2023-03-11T02:09:18;1.67;;;0.70;;
15669;SDS011;18524;45.190;5.732;2023-03-11T02:14:09;1.13;;;0.53;;
15669;SDS011;18524;45.190;5.732;2023-03-11T02:19:01;1.40;;;0.90;;
15669;SDS011;18524;45.190;5.732;2023-03-11T02:24:15;0.90;;;0.60;;
15669;SDS011;18524;45.190;5.732;2023-03-11T02:29:27;1.90;;;0.50;;
15669;SDS011;18524;45.190;5.732;2023-03-11T02:34:25;1.77;;;0.60;;
15669;SDS011;18524;45.190;5.732;2023-03-11T02:44:24;1.47;;;0.50;;
15669;SDS011;18524;45.190;5.732;2023-03-11T02:49:15;1.73;;;0.80;;
15669;SDS011;18524;45.190;5.732;2023-03-11T02:54:06;1.00;;;0.60;;
15669;SDS011;18524;45.190;5.732;2023-03-11T02:58:57;1.03;;;0.60;;
15669;SDS011;18524;45.190;5.732;2023-03-11T03:03:47;2.13;;;1.10;;
15669;SDS011;18524;45.190;5.732;2023-03-11T03:08:38;3.30;;;0.80;;
15669;SDS011;18524;45.190;5.732;2023-03-11T03:13:28;1.83;;;0.70;;
15669;SDS011;18524;45.190;5.732;2023-03-11T03:18:19;2.33;;;1.40;;
15669;SDS011;18524;45.190;5.732;2023-03-11T03:23:10;1.77;;;1.40;;
15669;SDS011;18524;45.190;5.732;2023-03-11T03:28:00;2.17;;;1.30;;
15669;SDS011;18524;45.190;5.732;2023-03-11T03:32:50;2.43;;;2.00;;
15669;SDS011;18524;45.190;5.732;2023-03-11T03:37:41;3.03;;;2.00;;
15669;SDS011;18524;45.190;5.732;2023-03-11T03:42:31;3.30;;;2.30;;
15669;SDS011;18524;45.190;5.732;2023-03-11T03:47:22;2.93;;;2.60;;
15669;SDS011;18524;45.190;5.732;2023-03-11T03:52:13;3.67;;;3.27;;
15669;SDS011;18524;45.190;5.732;2023-03-11T03:57:04;3.63;;;2.83;;
15669;SDS011;18524;45.190;5.732;2023-03-11T04:01:54;3.87;;;3.50;;
15669;SDS011;18524;45.190;5.732;2023-03-11T04:06:45;4.87;;;4.10;;
15669;SDS011;18524;45.190;5.732;2023-03-11T04:11:35;6.07;;;4.73;;
15669;SDS011;18524;45.190;5.732;2023-03-11T04:16:26;6.33;;;4.37;;
15669;SDS011;18524;45.190;5.732;2023-03-11T04:21:17;5.00;;;4.50;;
15669;SDS011;18524;45.190;5.732;2023-03-11T04:26:08;3.77;;;3.37;;
15669;SDS011;18524;45.190;5.732;2023-03-11T04:30:58;4.17;;;3.77;;
15669;SDS011;18524;45.190;5.732;2023-03-11T04:35:48;3.93;;;3.20;;
15669;SDS011;18524;45.190;5.732;2023-03-11T04:40:39;3.20;;;2.83;;
15669;SDS011;18524;45.190;5.732;2023-03-11T04:45:29;3.27;;;2.97;;
15669;SDS011;18524;45.190;5.732;2023-03-11T04:50:20;5.00;;;3.93;;
15669;SDS011;18524;45.190;5.732;2023-03-11T04:55:10;4.27;;;3.87;;
15669;SDS011;18524;45.190;5.732;2023-03-11T05:00:03;5.07;;;4.57;;
15669;SDS011;18524;45.190;5.732;2023-03-11T05:04:58;4.90;;;4.20;;
15669;SDS011;18524;45.190;5.732;2023-03-11T05:09:49;4.80;;;4.17;;
15669;SDS011;18524;45.190;5.732;2023-03-11T05:14:39;4.03;;;3.53;;
15669;SDS011;18524;45.190;5.732;2023-03-11T05:19:29;4.60;;;3.87;;
15669;SDS011;18524;45.190;5.732;2023-03-11T05:24:20;4.47;;;4.07;;
15669;SDS011;18524;45.190;5.732;2023-03-11T05:29:10;6.47;;;5.47;;
15669;SDS011;18524;45.190;5.732;2023-03-11T05:34:01;4.87;;;4.37;;
15669;SDS011;18524;45.190;5.732;2023-03-11T05:38:51;4.40;;;4.00;;
15669;SDS011;18524;45.190;5.732;2023-03-11T05:43:42;4.10;;;3.67;;
15669;SDS011;18524;45.190;5.732;2023-03-11T05:48:32;4.57;;;3.10;;
15669;SDS011;18524;45.190;5.732;2023-03-11T05:53:22;2.80;;;2.50;;
15669;SDS011;18524;45.190;5.732;2023-03-11T05:58:14;1.93;;;1.77;;
15669;SDS011;18524;45.190;5.732;2023-03-11T06:03:04;1.97;;;1.77;;
15669;SDS011;18524;45.190;5.732;2023-03-11T06:07:54;2.43;;;2.17;;
15669;SDS011;18524;45.190;5.732;2023-03-11T06:12:45;2.83;;;2.00;;
15669;SDS011;18524;45.190;5.732;2023-03-11T06:17:35;2.20;;;2.00;;
15669;SDS011;18524;45.190;5.732;2023-03-11T06:22:25;2.33;;;2.13;;
15669;SDS011;18524;45.190;5.732;2023-03-11T06:27:16;2.73;;;2.53;;
15669;SDS011;18524;45.190;5.732;2023-03-11T06:32:06;3.13;;;2.27;;
15669;SDS011;18524;45.190;5.732;2023-03-11T06:36:57;2.53;;;2.33;;
15669;SDS011;18524;45.190;5.732;2023-03-11T06:41:49;3.70;;;3.40;;
15669;SDS011;18524;45.190;5.732;2023-03-11T06:46:39;2.27;;;2.07;;
15669;SDS011;18524;45.190;5.732;2023-03-11T06:51:29;2.00;;;1.80;;
15669;SDS011;18524;45.190;5.732;2023-03-11T06:56:20;2.57;;;2.37;;
15669;SDS011;18524;45.190;5.732;2023-03-11T07:06:03;2.60;;;2.40;;
15669;SDS011;18524;45.190;5.732;2023-03-11T07:15:59;1.70;;;1.60;;
15669;SDS011;18524;45.190;5.732;2023-03-11T07:20:51;2.20;;;2.00;;
15669;SDS011;18524;45.190;5.732;2023-03-11T07:25:45;2.80;;;2.60;;
15669;SDS011;18524;45.190;5.732;2023-03-11T07:30:37;2.80;;;2.60;;
15669;SDS011;18524;45.190;5.732;2023-03-11T07:35:28;2.60;;;2.40;;
15669;SDS011;18524;45.190;5.732;2023-03-11T07:40:18;3.30;;;3.10;;
15669;SDS011;18524;45.190;5.732;2023-03-11T07:45:09;3.03;;;2.83;;
15669;SDS011;18524;45.190;5.732;2023-03-11T07:49:59;4.10;;;3.80;;
15669;SDS011;18524;45.190;5.732;2023-03-11T07:54:50;4.53;;;4.13;;
15669;SDS011;18524;45.190;5.732;2023-03-11T07:59:40;4.50;;;4.10;;
15669;SDS011;18524;45.190;5.732;2023-03-11T08:04:30;3.03;;;2.83;;
15669;SDS011;18524;45.190;5.732;2023-03-11T08:09:21;3.53;;;3.23;;
15669;SDS011;18524;45.190;5.732;2023-03-11T08:14:11;4.00;;;3.60;;
15669;SDS011;18524;45.190;5.732;2023-03-11T08:19:02;1.60;;;1.50;;
15669;SDS011;18524;45.190;5.732;2023-03-11T08:23:55;1.63;;;1.53;;
15669;SDS011;18524;45.190;5.732;2023-03-11T08:28:46;1.60;;;1.50;;
15669;SDS011;18524;45.190;5.732;2023-03-11T08:33:37;1.27;;;1.17;;
15669;SDS011;18524;45.190;5.732;2023-03-11T08:38:28;1.57;;;1.47;;
15669;SDS011;18524;45.190;5.732;2023-03-11T08:43:18;3.10;;;2.80;;
15669;SDS011;18524;45.190;5.732;2023-03-11T08:48:09;3.40;;;2.60;;
15669;SDS011;18524;45.190;5.732;2023-03-11T08:53:00;2.60;;;2.40;;
15669;SDS011;18524;45.190;5.732;2023-03-11T08:57:52;2.23;;;2.13;;
15669;SDS011;18524;45.190;5.732;2023-03-11T09:02:42;2.63;;;2.43;;
15669;SDS011;18524;45.190;5.732;2023-03-11T09:07:33;1.70;;;1.60;;
15669;SDS011;18524;45.190;5.732;2023-03-11T09:12:23;1.40;;;1.30;;
15669;SDS011;18524;45.190;5.732;2023-03-11T09:17:14;1.13;;;1.03;;
15669;SDS011;18524;45.190;5.732;2023-03-11T09:22:04;2.40;;;1.40;;
15669;SDS011;18524;45.190;5.732;2023-03-11T09:26:55;3.87;;;3.57;;
15669;SDS011;18524;45.190;5.732;2023-03-11T09:31:45;2.60;;;2.40;;
15669;SDS011;18524;45.190;5.732;2023-03-11T09:36:37;1.63;;;1.40;;
15669;SDS011;18524;45.190;5.732;2023-03-11T09:41:37;1.87;;;1.77;;
15669;SDS011;18524;45.190;5.732;2023-03-11T09:57:15;1.23;;;0.80;;
15669;SDS011;18524;45.190;5.732;2023-03-11T10:02:17;1.80;;;1.70;;
15669;SDS011;18524;45.190;5.732;2023-03-11T10:07:11;2.00;;;1.87;;
15669;SDS011;18524;45.190;5.732;2023-03-11T10:12:17;2.90;;;2.70;;
15669;SDS011;18524;45.190;5.732;2023-03-11T10:22:13;4.40;;;4.00;;
15669;SDS011;18524;45.190;5.732;2023-03-11T10:27:16;3.80;;;3.50;;
15669;SDS011;18524;45.190;5.732;2023-03-11T10:32:13;4.60;;;4.20;;
15669;SDS011;18524;45.190;5.732;2023-03-11T10:37:10;5.27;;;4.87;;
15669;SDS011;18524;45.190;5.732;2023-03-11T10:42:03;3.80;;;3.50;;
15669;SDS011;18524;45.190;5.732;2023-03-11T10:46:55;4.20;;;3.90;;
15669;SDS011;18524;45.190;5.732;2023-03-11T10:51:46;4.17;;;3.87;;
15669;SDS011;18524;45.190;5.732;2023-03-11T10:56:39;5.43;;;4.93;;
15669;SDS011;18524;45.190;5.732;2023-03-11T11:01:30;4.73;;;4.33;;
15669;SDS011;18524;45.190;5.732;2023-03-11T11:06:25;5.50;;;5.10;;
15669;SDS011;18524;45.190;5.732;2023-03-11T11:11:20;5.87;;;5.37;;
15669;SDS011;18524;45.190;5.732;2023-03-11T11:21:08;7.37;;;6.67;;
15669;SDS011;18524;45.190;5.732;2023-03-11T11:26:01;7.60;;;6.90;;
15669;SDS011;18524;45.190;5.732;2023-03-11T11:30:57;8.67;;;7.97;;
15669;SDS011;18524;45.190;5.732;2023-03-11T11:35:54;10.53;;;9.53;;
15669;SDS011;18524;45.190;5.732;2023-03-11T11:40:47;10.70;;;9.73;;
15669;SDS011;18524;45.190;5.732;2023-03-11T11:45:43;11.90;;;10.70;;
15669;SDS011;18524;45.190;5.732;2023-03-11T11:50:36;8.97;;;8.20;;
15669;SDS011;18524;45.190;5.732;2023-03-11T11:55:32;10.80;;;9.83;;
15669;SDS011;18524;45.190;5.732;2023-03-11T12:00:29;9.00;;;8.20;;
15669;SDS011;18524;45.190;5.732;2023-03-11T12:05:56;14.97;;;13.07;;
15669;SDS011;18524;45.190;5.732;2023-03-11T12:10:53;14.70;;;13.30;;
15669;SDS011;18524;45.190;5.732;2023-03-11T12:20:51;9.93;;;9.03;;
15669;SDS011;18524;45.190;5.732;2023-03-11T12:26:03;9.77;;;8.83;;
15669;SDS011;18524;45.190;5.732;2023-03-11T12:30:59;7.07;;;6.57;;
15669;SDS011;18524;45.190;5.732;2023-03-11T12:35:57;7.80;;;7.10;;
15669;SDS011;18524;45.190;5.732;2023-03-11T12:40:56;7.17;;;6.57;;
15669;SDS011;18524;45.190;5.732;2023-03-11T12:45:51;8.47;;;7.73;;
15669;SDS011;18524;45.190;5.732;2023-03-11T12:50:43;7.73;;;7.10;;
15669;SDS011;18524;45.190;5.732;2023-03-11T12:55:34;7.23;;;6.67;;
15669;SDS011;18524;45.190;5.732;2023-03-11T13:01:02;7.23;;;6.63;;
15669;SDS011;18524;45.190;5.732;2023-03-11T13:11:51;7.07;;;6.53;;
15669;SDS011;18524;45.190;5.732;2023-03-11T13:26:28;9.77;;;8.97;;
15669;SDS011;18524;45.190;5.732;2023-03-11T13:31:35;9.63;;;8.83;;
15669;SDS011;18524;45.190;5.732;2023-03-11T13:42:00;10.60;;;9.70;;
15669;SDS011;18524;45.190;5.732;2023-03-11T13:46:56;11.80;;;10.80;;
15669;SDS011;18524;45.190;5.732;2023-03-11T13:51:53;9.07;;;8.17;;
15669;SDS011;18524;45.190;5.732;2023-03-11T13:56:47;7.60;;;6.90;;
15669;SDS011;18524;45.190;5.732;2023-03-11T14:01:53;8.80;;;8.10;;
15669;SDS011;18524;45.190;5.732;2023-03-11T14:06:46;6.80;;;6.30;;
15669;SDS011;18524;45.190;5.732;2023-03-11T14:11:36;2.90;;;2.67;;
15669;SDS011;18524;45.190;5.732;2023-03-11T14:21:25;10.90;;;10.00;;
15669;SDS011;18524;45.190;5.732;2023-03-11T14:26:20;10.30;;;9.40;;
15669;SDS011;18524;45.190;5.732;2023-03-11T14:31:20;7.90;;;7.10;;
15669;SDS011;18524;45.190;5.732;2023-03-11T14:36:21;8.27;;;7.57;;
15669;SDS011;18524;45.190;5.732;2023-03-11T14:41:12;5.00;;;4.50;;
15669;SDS011;18524;45.190;5.732;2023-03-11T14:46:04;5.50;;;4.27;;
15669;SDS011;18524;45.190;5.732;2023-03-11T14:50:56;1.60;;;1.33;;
15669;SDS011;18524;45.190;5.732;2023-03-11T14:55:56;1.90;;;1.40;;
15669;SDS011;18524;45.190;5.732;2023-03-11T15:00:49;0.70;;;0.70;;
15669;SDS011;18524;45.190;5.732;2023-03-11T15:15:59;1.20;;;1.10;;
15669;SDS011;18524;45.190;5.732;2023-03-11T15:26:04;5.60;;;5.20;;
15669;SDS011;18524;45.190;5.732;2023-03-11T15:36:27;7.00;;;6.40;;
15669;SDS011;18524;45.190;5.732;2023-03-11T15:41:17;7.57;;;6.97;;
15669;SDS011;18524;45.190;5.732;2023-03-11T15:46:07;6.87;;;6.37;;
15669;SDS011;18524;45.190;5.732;2023-03-11T15:51:00;8.00;;;7.30;;
15669;SDS011;18524;45.190;5.732;2023-03-11T15:55:50;5.07;;;4.67;;
15669;SDS011;18524;45.190;5.732;2023-03-11T16:00:46;2.00;;;1.90;;
15669;SDS011;18524;45.190;5.732;2023-03-11T16:05:38;2.37;;;2.17;;
15669;SDS011;18524;45.190;5.732;2023-03-11T16:10:28;1.73;;;1.60;;
15669;SDS011;18524;45.190;5.732;2023-03-11T16:20:13;2.93;;;2.73;;
15669;SDS011;18524;45.190;5.732;2023-03-11T16:25:04;2.60;;;2.40;;
15669;SDS011;18524;45.190;5.732;2023-03-11T16:29:57;3.10;;;2.80;;
15669;SDS011;18524;45.190;5.732;2023-03-11T16:34:48;3.10;;;2.90;;
15669;SDS011;18524;45.190;5.732;2023-03-11T16:39:38;3.70;;;3.40;;
15669;SDS011;18524;45.190;5.732;2023-03-11T16:44:28;8.40;;;7.73;;
15669;SDS011;18524;45.190;5.732;2023-03-11T16:49:19;9.73;;;8.93;;
15669;SDS011;18524;45.190;5.732;2023-03-11T16:54:09;7.60;;;7.00;;
15669;SDS011;18524;45.190;5.732;2023-03-11T16:59:00;10.80;;;9.87;;
15669;SDS011;18524;45.190;5.732;2023-03-11T17:03:50;11.10;;;10.00;;
15669;SDS011;18524;45.190;5.732;2023-03-11T17:08:41;2.67;;;2.47;;
15669;SDS011;18524;45.190;5.732;2023-03-11T17:13:37;2.70;;;2.50;;
15669;SDS011;18524;45.190;5.732;2023-03-11T17:18:28;8.47;;;7.67;;
15669;SDS011;18524;45.190;5.732;2023-03-11T17:23:18;9.50;;;8.50;;
15669;SDS011;18524;45.190;5.732;2023-03-11T17:28:09;9.40;;;8.50;;
15669;SDS011;18524;45.190;5.732;2023-03-11T17:32:59;5.13;;;4.57;;
15669;SDS011;18524;45.190;5.732;2023-03-11T17:37:50;5.07;;;4.67;;
15669;SDS011;18524;45.190;5.732;2023-03-11T17:42:40;8.77;;;7.97;;
15669;SDS011;18524;45.190;5.732;2023-03-11T17:47:31;7.90;;;7.20;;
15669;SDS011;18524;45.190;5.732;2023-03-11T17:52:21;8.70;;;8.00;;
15669;SDS011;18524;45.190;5.732;2023-03-11T17:57:12;9.00;;;8.10;;
15669;SDS011;18524;45.190;5.732;2023-03-11T18:02:02;10.67;;;9.57;;
15669;SDS011;18524;45.190;5.732;2023-03-11T18:06:53;7.93;;;7.23;;
15669;SDS011;18524;45.190;5.732;2023-03-11T18:11:44;7.63;;;6.93;;
15669;SDS011;18524;45.190;5.732;2023-03-11T18:16:34;12.97;;;11.80;;
15669;SDS011;18524;45.190;5.732;2023-03-11T18:21:26;12.17;;;10.57;;
15669;SDS011;18524;45.190;5.732;2023-03-11T18:26:18;10.03;;;9.13;;
15669;SDS011;18524;45.190;5.732;2023-03-11T18:31:13;18.73;;;15.10;;
15669;SDS011;18524;45.190;5.732;2023-03-11T18:36:12;9.90;;;9.00;;
15669;SDS011;18524;45.190;5.732;2023-03-11T18:41:07;7.10;;;6.40;;
15669;SDS011;18524;45.190;5.732;2023-03-11T18:45:58;8.70;;;7.80;;
15669;SDS011;18524;45.190;5.732;2023-03-11T18:50:50;6.60;;;6.00;;
15669;SDS011;18524;45.190;5.732;2023-03-11T18:55:41;7.50;;;6.80;;
15669;SDS011;18524;45.190;5.732;2023-03-11T19:00:32;8.60;;;7.80;;
15669;SDS011;18524;45.190;5.732;2023-03-11T19:05:22;9.50;;;8.50;;
15669;SDS011;18524;45.190;5.732;2023-03-11T19:10:12;12.90;;;11.60;;
15669;SDS011;18524;45.190;5.732;2023-03-11T19:15:04;18.13;;;16.13;;
15669;SDS011;18524;45.190;5.732;2023-03-11T19:19:55;16.17;;;13.07;;
15669;SDS011;18524;45.190;5.732;2023-03-11T19:24:45;13.50;;;12.20;;
15669;SDS011;18524;45.190;5.732;2023-03-11T19:29:36;10.47;;;9.47;;
15669;SDS011;18524;45.190;5.732;2023-03-11T19:34:26;8.93;;;8.13;;
15669;SDS011;18524;45.190;5.732;2023-03-11T19:39:17;8.83;;;7.93;;
15669;SDS011;18524;45.190;5.732;2023-03-11T19:44:08;9.77;;;8.83;;
15669;SDS011;18524;45.190;5.732;2023-03-11T19:48:58;11.10;;;10.00;;
15669;SDS011;18524;45.190;5.732;2023-03-11T19:53:49;10.10;;;9.10;;
15669;SDS011;18524;45.190;5.732;2023-03-11T19:58:40;11.13;;;9.23;;
15669;SDS011;18524;45.190;5.732;2023-03-11T20:03:31;8.27;;;7.50;;
15669;SDS011;18524;45.190;5.732;2023-03-11T20:08:22;11.07;;;9.90;;
15669;SDS011;18524;45.190;5.732;2023-03-11T20:13:14;8.50;;;7.70;;
15669;SDS011;18524;45.190;5.732;2023-03-11T20:18:06;8.27;;;7.57;;
15669;SDS011;18524;45.190;5.732;2023-03-11T20:22:56;9.97;;;9.07;;
15669;SDS011;18524;45.190;5.732;2023-03-11T20:27:47;9.23;;;8.40;;
15669;SDS011;18524;45.190;5.732;2023-03-11T20:32:38;7.87;;;7.07;;
15669;SDS011;18524;45.190;5.732;2023-03-11T20:37:29;10.27;;;9.17;;
15669;SDS011;18524;45.190;5.732;2023-03-11T20:42:20;12.77;;;10.70;;
15669;SDS011;18524;45.190;5.732;2023-03-11T20:47:10;8.53;;;7.23;;
15669;SDS011;18524;45.190;5.732;2023-03-11T20:52:00;9.27;;;8.47;;
15669;SDS011;18524;45.190;5.732;2023-03-11T20:56:51;9.97;;;8.97;;
15669;SDS011;18524;45.190;5.732;2023-03-11T21:01:42;10.17;;;8.90;;
15669;SDS011;18524;45.190;5.732;2023-03-11T21:06:35;9.80;;;8.80;;
15669;SDS011;18524;45.190;5.732;2023-03-11T21:11:27;9.30;;;8.40;;
15669;SDS011;18524;45.190;5.732;2023-03-11T21:16:17;9.47;;;8.67;;
15669;SDS011;18524;45.190;5.732;2023-03-11T21:21:08;9.90;;;9.00;;
15669;SDS011;18524;45.190;5.732;2023-03-11T21:26:01;8.80;;;7.90;;
15669;SDS011;18524;45.190;5.732;2023-03-11T21:31:12;9.13;;;8.23;;
15669;SDS011;18524;45.190;5.732;2023-03-11T21:36:07;10.13;;;9.13;;
15669;SDS011;18524;45.190;5.732;2023-03-11T21:41:03;11.13;;;10.07;;
15669;SDS011;18524;45.190;5.732;2023-03-11T21:46:01;8.67;;;7.90;;
15669;SDS011;18524;45.190;5.732;2023-03-11T21:50:52;7.67;;;6.97;;
15669;SDS011;18524;45.190;5.732;2023-03-11T21:55:43;7.03;;;6.43;;
15669;SDS011;18524;45.190;5.732;2023-03-11T22:00:34;5.10;;;4.60;;
15669;SDS011;18524;45.190;5.732;2023-03-11T22:05:25;5.50;;;5.00;;
15669;SDS011;18524;45.190;5.732;2023-03-11T22:10:16;5.20;;;4.80;;
15669;SDS011;18524;45.190;5.732;2023-03-11T22:15:07;5.23;;;4.83;;
15669;SDS011;18524;45.190;5.732;2023-03-11T22:19:57;5.57;;;5.17;;
15669;SDS011;18524;45.190;5.732;2023-03-11T22:24:48;5.80;;;5.30;;
15669;SDS011;18524;45.190;5.732;2023-03-11T22:29:38;5.57;;;5.07;;
15669;SDS011;18524;45.190;5.732;2023-03-11T22:34:28;5.43;;;5.00;;
15669;SDS011;18524;45.190;5.732;2023-03-11T22:39:19;7.10;;;6.00;;
15669;SDS011;18524;45.190;5.732;2023-03-11T22:44:09;6.47;;;5.87;;
15669;SDS011;18524;45.190;5.732;2023-03-11T22:48:59;6.80;;;6.20;;
15669;SDS011;18524;45.190;5.732;2023-03-11T22:53:50;7.67;;;6.40;;
15669;SDS011;18524;45.190;5.732;2023-03-11T22:58:40;7.70;;;6.80;;
15669;SDS011;18524;45.190;5.732;2023-03-11T23:03:32;6.70;;;6.03;;
15669;SDS011;18524;45.190;5.732;2023-03-11T23:08:23;4.53;;;4.13;;
15669;SDS011;18524;45.190;5.732;2023-03-11T23:13:14;4.90;;;4.40;;
15669;SDS011;18524;45.190;5.732;2023-03-11T23:18:04;5.80;;;5.20;;
15669;SDS011;18524;45.190;5.732;2023-03-11T23:22:55;5.67;;;5.10;;
15669;SDS011;18524;45.190;5.732;2023-03-11T23:27:45;7.13;;;5.40;;
15669;SDS011;18524;45.190;5.732;2023-03-11T23:32:36;4.87;;;4.37;;
15669;SDS011;18524;45.190;5.732;2023-03-11T23:37:26;5.30;;;4.90;;
15669;SDS011;18524;45.190;5.732;2023-03-11T23:42:16;6.60;;;5.90;;
15669;SDS011;18524;45.190;5.732;2023-03-11T23:47:07;6.80;;;6.13;;
15669;SDS011;18524;45.190;5.732;2023-03-11T23:51:57;7.57;;;6.87;;
15669;SDS011;18524;45.190;5.732;2023-03-11T23:56:47;7.83;;;7.03;;
